Time;durP1;ratioP1;P1;durP2;ratioP2;P2;SDS_P1;SDS_P2;PMS_P1;PMS_P2;Temp;Humidity;BMP_temperature;BMP_pressure;BME280_temperature;BME280_humidity;BME280_pressure;Samples;Min_cycle;Max_cycle;Signal;HPM_P1;HPM_P2
2022/04/29 00:03:59;;;;;;;2.10;2.00;;;;;;;19.37;38.09;97919.88;10340622;28;20500;-51
2022/04/29 00:09:19;;;;;;;2.13;1.90;;;;;;;19.36;38.08;97918.25;10331649;28;20058;-50
2022/04/29 00:14:39;;;;;;;2.25;2.00;;;;;;;19.35;38.03;97917.44;10324234;28;20074;-50
2022/04/29 00:19:58;;;;;;;1.95;1.85;;;;;;;19.34;38.05;97912.34;10341137;28;20552;-50
2022/04/29 00:25:18;;;;;;;1.83;1.73;;;;;;;19.33;38.03;97916.94;10323115;28;20497;-49
2022/04/29 00:30:38;;;;;;;1.80;1.70;;;;;;;19.32;37.97;97915.31;10328905;28;20101;-51
2022/04/29 00:35:58;;;;;;;1.90;1.80;;;;;;;19.31;37.98;97913.75;10343205;28;20043;-52
2022/04/29 00:41:24;;;;;;;1.90;1.70;;;;;;;19.31;38.00;97911.03;10324644;28;20433;-51
2022/04/29 00:46:45;;;;;;;2.10;1.90;;;;;;;19.31;37.96;97915.66;10327459;28;20050;-51
2022/04/29 00:52:11;;;;;;;2.42;1.90;;;;;;;19.30;38.11;97916.72;10317943;28;20054;-51
2022/04/29 00:57:46;;;;;;;2.10;1.90;;;;;;;19.28;38.01;97905.41;10309619;28;20098;-51
2022/04/29 01:03:05;;;;;;;1.90;1.80;;;;;;;19.28;38.05;97905.41;10322702;28;20046;-49
2022/04/29 01:08:25;;;;;;;2.22;1.95;;;;;;;19.27;38.18;97901.13;10341133;28;20069;-51
2022/04/29 01:13:44;;;;;;;2.17;1.90;;;;;;;19.25;38.06;97889.78;10324702;28;20066;-52
2022/04/29 01:19:04;;;;;;;2.10;1.90;;;;;;;19.24;38.10;97888.19;10329537;28;20041;-51
2022/04/29 01:24:23;;;;;;;2.30;1.92;;;;;;;19.23;38.07;97887.41;10326097;28;20493;-49
2022/04/29 01:29:44;;;;;;;2.13;1.90;;;;;;;19.23;38.01;97881.16;10327714;28;20509;-49
2022/04/29 01:35:05;;;;;;;2.03;1.83;;;;;;;19.21;38.14;97880.66;10306671;28;20065;-50
2022/04/29 01:40:25;;;;;;;2.08;1.98;;;;;;;19.21;38.16;97875.25;10327359;28;20390;-49
2022/04/29 01:45:45;;;;;;;1.67;1.58;;;;;;;19.21;38.16;97875.25;10308419;28;20065;-50
2022/04/29 01:51:23;;;;;;;1.98;1.77;;;;;;;19.21;38.19;97877.97;10311001;28;20116;-49
2022/04/29 01:56:44;;;;;;;2.00;1.80;;;;;;;19.20;38.14;97873.69;10313510;28;20449;-50
2022/04/29 02:02:06;;;;;;;2.03;1.73;;;;;;;19.18;38.10;97873.97;10311431;28;20054;-50
2022/04/29 02:07:25;;;;;;;2.42;1.83;;;;;;;19.16;38.15;97863.44;10325281;28;20137;-51
2022/04/29 02:12:48;;;;;;;1.90;1.80;;;;;;;19.15;38.23;97859.16;10319546;28;20422;-49
2022/04/29 02:18:22;;;;;;;1.98;1.83;;;;;;;19.13;38.19;97861.34;10298949;28;20054;-49
2022/04/29 02:23:42;;;;;;;2.20;2.00;;;;;;;19.17;38.25;97861.56;10309396;28;20054;-52
2022/04/29 02:29:02;;;;;;;2.47;2.08;;;;;;;19.19;38.21;97861.25;10334559;28;20082;-51
2022/04/29 02:34:23;;;;;;;1.88;1.73;;;;;;;19.20;38.05;97858.25;10324666;28;20413;-49
2022/04/29 02:39:43;;;;;;;2.08;1.90;;;;;;;19.17;38.16;97854.25;10295037;28;20054;-49
2022/04/29 02:45:02;;;;;;;2.15;2.00;;;;;;;19.16;38.16;97849.94;10313455;28;20054;-49
2022/04/29 02:50:40;;;;;;;1.90;1.80;;;;;;;19.13;38.05;97842.44;10320491;28;21387;-49
2022/04/29 02:56:00;;;;;;;2.25;1.90;;;;;;;19.11;38.12;97841.94;10307304;28;20414;-51
2022/04/29 03:01:45;;;;;;;2.05;1.85;;;;;;;19.10;38.10;97844.94;10294057;28;20056;-51
2022/04/29 03:07:04;;;;;;;2.38;2.17;;;;;;;19.08;38.22;97837.13;10318915;28;20053;-50
2022/04/29 03:12:44;;;;;;;2.28;2.08;;;;;;;19.06;38.13;97833.91;10319417;28;20057;-50
2022/04/29 03:18:19;;;;;;;2.40;2.00;;;;;;;19.06;38.25;97833.91;10307833;28;20057;-49
2022/04/29 03:23:38;;;;;;;1.90;1.80;;;;;;;19.04;38.08;97828.00;10321530;28;20050;-49
2022/04/29 03:28:58;;;;;;;1.92;1.83;;;;;;;19.04;38.32;97830.72;10316943;28;20045;-52
2022/04/29 03:34:18;;;;;;;2.00;1.83;;;;;;;19.03;38.31;97839.88;10319581;28;20050;-52
2022/04/29 03:39:39;;;;;;;2.08;1.98;;;;;;;19.02;38.17;97832.91;10321928;28;20045;-49
2022/04/29 03:44:58;;;;;;;2.17;1.98;;;;;;;19.01;38.28;97836.69;10299543;28;20058;-48
2022/04/29 03:50:19;;;;;;;2.15;1.98;;;;;;;19.01;38.12;97831.28;10301162;28;20049;-50
2022/04/29 03:55:56;;;;;;;2.17;1.98;;;;;;;18.99;38.19;97827.28;10304696;28;20030;-49
2022/04/29 04:01:15;;;;;;;2.85;2.08;;;;;;;18.99;38.27;97828.06;10310626;28;20622;-49
2022/04/29 04:06:49;;;;;;;2.20;2.00;;;;;;;18.99;38.19;97829.97;10307849;28;20077;-51
2022/04/29 04:12:12;;;;;;;1.88;1.77;;;;;;;18.99;38.23;97835.38;10307923;28;20050;-50
2022/04/29 04:18:02;;;;;;;2.40;2.20;;;;;;;18.98;38.25;97837.28;10296554;28;20061;-50
2022/04/29 04:23:21;;;;;;;2.30;2.10;;;;;;;18.98;38.26;97837.28;10332940;28;20058;-49
2022/04/29 04:28:41;;;;;;;2.80;2.10;;;;;;;18.98;38.18;97842.69;10308129;28;20055;-49
2022/04/29 04:34:49;;;;;;;2.25;2.05;;;;;;;19.01;38.19;97855.59;10292587;28;22164;-49
2022/04/29 04:39:42;;;;;;;2.20;2.00;;;;;;;19.03;38.78;97861.50;10309026;28;20051;-49
2022/04/29 04:45:06;;;;;;;2.30;2.00;;;;;;;19.05;38.63;97866.59;10318464;28;20062;-49
2022/04/29 04:50:32;;;;;;;3.33;2.30;;;;;;;19.08;38.61;97874.13;10311426;28;20050;-48
2022/04/29 04:55:53;;;;;;;2.40;2.20;;;;;;;19.10;38.50;97877.34;10330495;28;20038;-51
2022/04/29 05:01:12;;;;;;;14.27;4.80;;;;;;;19.12;38.74;97884.03;10324007;28;20046;-49
2022/04/29 05:06:37;;;;;;;9.10;4.07;;;;;;;19.18;39.88;97884.78;10322986;28;20061;-50
2022/04/29 05:11:57;;;;;;;12.13;4.72;;;;;;;19.21;39.51;97888.78;10306493;28;20104;-49
2022/04/29 05:17:39;;;;;;;14.82;4.25;;;;;;;19.24;39.43;97885.50;10318838;28;20054;-48
2022/04/29 05:23:17;;;;;;;11.52;4.53;;;;;;;19.26;39.41;97891.41;10310795;28;20059;-48
2022/04/29 05:28:56;;;;;;;10.77;5.40;;;;;;;19.29;39.14;97890.81;10332630;28;20051;-51
2022/04/29 05:34:35;;;;;;;12.73;5.33;;;;;;;19.32;39.03;97893.72;10324687;28;20049;-51
2022/04/29 05:45:51;;;;;;;9.85;5.22;;;;;;;19.39;39.53;97904.16;10315660;28;20054;-50
2022/04/29 05:51:12;;;;;;;8.48;5.30;;;;;;;19.43;39.37;97901.66;10326437;28;20046;-49
2022/04/29 05:56:32;;;;;;;9.20;5.30;;;;;;;19.47;39.25;97902.69;10330195;28;20056;-50
2022/04/29 06:01:55;;;;;;;7.95;4.75;;;;;;;19.51;39.47;97900.97;10308143;28;20061;-49
2022/04/29 06:07:18;;;;;;;8.00;4.72;;;;;;;19.52;39.65;97907.97;10315859;28;20054;-48
2022/04/29 06:12:40;;;;;;;7.22;4.57;;;;;;;19.54;39.60;97908.47;10296171;28;20567;-49
2022/04/29 06:18:04;;;;;;;8.13;4.70;;;;;;;19.57;39.63;97913.31;10331416;28;20049;-49
2022/04/29 06:23:42;;;;;;;8.70;4.22;;;;;;;19.58;40.31;97898.69;10323614;28;20054;-49
2022/04/29 06:29:04;;;;;;;9.95;4.72;;;;;;;19.63;40.23;97911.31;10309103;28;20042;-49
2022/04/29 06:34:24;;;;;;;10.60;4.50;;;;;;;19.64;40.52;97908.31;10313274;28;20377;-49
2022/04/29 06:39:43;;;;;;;9.80;4.53;;;;;;;19.65;40.62;97904.50;10312595;28;20489;-52
2022/04/29 06:45:27;;;;;;;9.43;4.55;;;;;;;19.69;40.89;97915.53;10306780;28;20417;-49
2022/04/29 06:51:06;;;;;;;9.30;4.10;;;;;;;19.71;41.35;97911.44;10321705;28;20572;-51
2022/04/29 06:56:41;;;;;;;7.68;4.40;;;;;;;19.73;41.56;97916.56;10304519;28;20493;-51
2022/04/29 07:02:01;;;;;;;9.30;3.97;;;;;;;19.75;41.89;97919.78;10304099;28;20100;-49
2022/04/29 07:07:21;;;;;;;6.50;3.97;;;;;;;19.77;41.79;97914.88;10300419;28;20043;-51
2022/04/29 07:12:47;;;;;;;7.20;3.85;;;;;;;19.77;41.67;97912.16;10314919;28;20520;-52
2022/04/29 07:18:06;;;;;;;8.32;4.13;;;;;;;19.79;41.40;97901.06;10326443;28;20042;-50
2022/04/29 07:23:26;;;;;;;8.40;4.22;;;;;;;19.79;41.24;97892.94;10322223;28;20042;-51
2022/04/29 07:28:45;;;;;;;11.13;4.60;;;;;;;19.82;41.28;97903.97;10319745;28;20091;-51
2022/04/29 07:34:06;;;;;;;10.77;4.53;;;;;;;19.84;41.31;97901.78;10305650;28;20046;-48
2022/04/29 07:45:38;;;;;;;16.17;5.80;;;;;;;19.85;41.14;97897.94;10351167;28;20038;-49
2022/04/29 07:51:29;;;;;;;16.02;6.57;;;;;;;19.85;40.87;97899.84;10330247;28;20352;-51
2022/04/29 07:56:49;;;;;;;15.98;6.70;;;;;;;19.85;40.75;97889.03;10318614;28;20054;-50
2022/04/29 08:02:11;;;;;;;11.57;5.85;;;;;;;19.85;40.66;97889.03;10314724;28;20074;-49
2022/04/29 08:07:32;;;;;;;12.55;6.45;;;;;;;19.85;40.42;97899.84;10341428;28;20038;-51
2022/04/29 08:12:52;;;;;;;11.93;6.20;;;;;;;19.85;40.55;97892.53;10316101;28;20109;-51
2022/04/29 08:18:31;;;;;;;10.20;6.03;;;;;;;19.85;40.57;97895.25;10335904;28;20042;-49
2022/04/29 08:23:51;;;;;;;12.63;5.72;;;;;;;19.85;40.36;97895.25;10318780;28;20470;-51
2022/04/29 08:29:11;;;;;;;9.40;5.53;;;;;;;19.85;40.29;97883.63;10329745;28;20054;-49
2022/04/29 08:34:33;;;;;;;8.98;5.32;;;;;;;19.86;40.08;97888.75;10314972;28;20116;-48
2022/04/29 08:39:56;;;;;;;8.75;5.40;;;;;;;19.87;39.88;97887.63;10304065;28;20054;-52
2022/04/29 08:45:17;;;;;;;9.98;5.35;;;;;;;19.86;39.84;97886.03;10317461;28;20113;-51
2022/04/29 08:50:59;;;;;;;9.50;5.35;;;;;;;19.87;39.99;97886.84;10340424;28;20560;-51
2022/04/29 09:01:58;;;;;;;8.50;5.00;;;;;;;19.88;39.81;97874.94;10313849;28;20055;-48
2022/04/29 09:07:17;;;;;;;8.15;4.97;;;;;;;19.87;39.75;97876.81;10331224;28;20054;-51
2022/04/29 09:12:37;;;;;;;8.43;4.65;;;;;;;19.87;39.75;97876.03;10323625;28;20077;-51
2022/04/29 09:17:56;;;;;;;7.65;4.47;;;;;;;19.86;39.72;97866.31;10332130;28;20054;-51
2022/04/29 09:23:25;;;;;;;6.35;4.50;;;;;;;19.85;39.84;97860.09;10321480;28;20058;-51
2022/04/29 09:29:14;;;;;;;6.13;4.15;;;;;;;19.85;39.80;97865.50;10339391;28;20050;-52
2022/04/29 09:34:47;;;;;;;7.93;4.32;;;;;;;19.84;38.05;97853.09;10322960;28;20038;-49
2022/04/29 09:40:07;;;;;;;6.45;3.67;;;;;;;19.82;36.33;97851.81;10329581;28;20042;-52
2022/04/29 09:45:27;;;;;;;5.68;3.65;;;;;;;19.78;34.80;97848.06;10326131;28;20422;-52
2022/04/29 09:50:50;;;;;;;5.22;3.88;;;;;;;19.74;33.59;97837.06;10316934;28;20057;-51
2022/04/29 09:56:12;;;;;;;4.18;2.90;;;;;;;19.71;33.39;97843.03;10328703;28;20057;-50
2022/04/29 10:01:31;;;;;;;4.30;2.97;;;;;;;19.70;32.87;97831.44;10313189;28;20645;-52
2022/04/29 10:06:51;;;;;;;4.88;2.78;;;;;;;19.66;31.79;97826.91;10324299;28;20079;-50
2022/04/29 10:12:13;;;;;;;5.68;3.00;;;;;;;19.66;32.29;97825.03;10336006;28;20062;-52
2022/04/29 10:23:48;;;;;;;5.22;4.30;;;;;;;19.66;32.49;97826.91;10318206;28;20041;-51
2022/04/29 10:29:08;;;;;;;7.28;5.05;;;;;;;19.64;32.73;97815.59;10336922;28;20050;-50
2022/04/29 10:34:29;;;;;;;8.35;5.00;;;;;;;19.65;32.95;97814.50;10341773;28;20504;-49
2022/04/29 10:40:13;;;;;;;6.13;4.53;;;;;;;19.63;31.89;97816.72;10327509;28;20054;-50
2022/04/29 10:45:33;;;;;;;4.60;4.03;;;;;;;19.59;31.49;97813.00;10343291;28;20047;-56
2022/04/29 10:50:54;;;;;;;4.85;3.60;;;;;;;19.53;30.86;97809.59;10315442;28;20437;-54
2022/04/29 10:56:32;;;;;;;4.13;3.17;;;;;;;19.51;30.76;97795.56;10324291;28;20054;-56
2022/04/29 11:02:08;;;;;;;3.95;3.28;;;;;;;19.51;31.94;97796.38;10320617;28;20116;-56
2022/04/29 11:07:48;;;;;;;3.85;2.63;;;;;;;19.54;31.81;97800.38;10316274;28;20050;-62
2022/04/29 11:13:11;;;;;;;3.97;2.90;;;;;;;19.53;31.77;97793.38;10284735;28;20061;-62
2022/04/29 11:19:20;;;;;;;5.00;2.97;;;;;;;19.52;30.95;97794.47;10321348;28;20104;-61
2022/04/29 11:24:42;;;;;;;9.90;2.55;;;;;;;19.49;31.17;97781.56;10323438;28;20065;-63
2022/04/29 11:30:03;;;;;;;3.58;1.95;;;;;;;19.47;32.21;97773.75;10309078;28;20046;-61
2022/04/29 11:35:57;;;;;;;2.00;1.67;;;;;;;19.49;33.11;97773.47;10319492;28;20051;-61
2022/04/29 11:41:22;;;;;;;2.20;2.00;;;;;;;19.50;33.56;97767.75;10309806;28;20046;-61
2022/04/29 11:46:51;;;;;;;2.42;2.05;;;;;;;19.51;33.93;97763.16;10325251;28;20066;-60
2022/04/29 11:52:24;;;;;;;5.28;2.00;;;;;;;19.52;33.78;97759.31;10324003;28;20057;-52
2022/04/29 11:57:49;;;;;;;2.70;2.05;;;;;;;19.52;34.08;97754.75;10327944;28;20065;-52
2022/04/29 12:03:08;;;;;;;3.03;1.73;;;;;;;19.52;34.12;97746.63;10320948;28;20054;-52
2022/04/29 12:08:37;;;;;;;2.85;1.90;;;;;;;19.52;34.52;97740.41;10324122;28;20054;-53
2022/04/29 12:14:16;;;;;;;4.35;1.90;;;;;;;19.54;35.31;97735.50;10326408;28;20047;-50
2022/04/29 12:19:36;;;;;;;3.05;1.80;;;;;;;19.54;35.46;97738.22;10341450;28;20503;-51
2022/04/29 12:24:55;;;;;;;2.00;1.80;;;;;;;19.52;35.54;97722.31;10332685;28;20112;-52
2022/04/29 12:36:12;;;;;;;4.20;2.38;;;;;;;19.51;34.57;97718.00;10311823;28;20058;-50
2022/04/29 12:41:32;;;;;;;3.50;2.95;;;;;;;19.51;34.63;97715.28;10325506;28;20058;-53
2022/04/29 12:46:51;;;;;;;5.07;2.70;;;;;;;19.50;33.16;97707.47;10315004;28;20058;-53
2022/04/29 12:52:12;;;;;;;5.43;2.83;;;;;;;19.49;32.55;97698.59;10329834;28;20423;-54
2022/04/29 12:57:32;;;;;;;3.42;2.45;;;;;;;19.48;32.98;97697.00;10311150;28;20065;-53
2022/04/29 13:03:25;;;;;;;5.10;3.08;;;;;;;19.47;32.30;97689.97;10340166;28;20548;-51
2022/04/29 13:09:15;;;;;;;2.40;2.03;;;;;;;19.46;32.60;97669.44;10323427;28;20046;-51
2022/04/29 13:14:34;;;;;;;2.47;2.08;;;;;;;19.47;33.12;97670.28;10322454;28;20062;-50
2022/04/29 13:19:54;;;;;;;2.38;2.00;;;;;;;19.46;33.71;97664.03;10331086;28;20054;-52
2022/04/29 13:25:13;;;;;;;3.88;2.17;;;;;;;19.47;34.12;97668.34;10345159;28;20112;-52
2022/04/29 13:30:35;;;;;;;2.42;2.10;;;;;;;19.47;34.40;97656.75;10314698;28;20042;-50
2022/04/29 13:35:55;;;;;;;2.83;1.90;;;;;;;19.49;34.46;97658.03;10323982;28;20490;-52
2022/04/29 13:41:16;;;;;;;1.83;1.73;;;;;;;19.50;34.66;97653.44;10322264;28;20505;-52
2022/04/29 13:46:36;;;;;;;2.20;2.00;;;;;;;19.51;34.75;97655.84;10323452;28;20097;-53
2022/04/29 13:51:56;;;;;;;2.75;1.80;;;;;;;19.53;34.83;97650.13;10337562;28;20049;-50
2022/04/29 13:57:15;;;;;;;2.80;1.88;;;;;;;19.55;35.11;97650.63;10324616;28;20074;-53
2022/04/29 14:02:35;;;;;;;1.80;1.70;;;;;;;19.55;35.22;97637.91;10320441;28;20050;-53
2022/04/29 14:07:56;;;;;;;2.33;1.88;;;;;;;19.58;35.24;97633.78;10321842;28;20047;-60
2022/04/29 14:13:18;;;;;;;2.00;1.80;;;;;;;19.62;35.67;97628.59;10327487;28;20062;-56
2022/04/29 14:18:37;;;;;;;2.92;1.80;;;;;;;19.62;35.67;97628.59;10328254;28;20054;-58
2022/04/29 14:23:57;;;;;;;3.17;1.70;;;;;;;19.64;36.08;97631.78;10324343;28;20061;-54
2022/04/29 14:29:18;;;;;;;2.67;2.13;;;;;;;19.63;36.41;97622.09;10327437;28;20042;-56
2022/04/29 14:34:41;;;;;;;2.20;2.00;;;;;;;19.65;36.59;97620.66;10340474;28;20044;-54
2022/04/29 14:40:05;;;;;;;4.60;2.10;;;;;;;19.65;36.71;97611.78;10320917;28;20042;-57
2022/04/29 14:45:24;;;;;;;2.17;1.98;;;;;;;19.67;37.00;97623.06;10334761;28;20042;-52
2022/04/29 14:50:44;;;;;;;3.83;1.85;;;;;;;19.67;37.11;97609.56;10328631;28;20054;-57
2022/04/29 14:56:04;;;;;;;2.20;2.00;;;;;;;19.70;37.16;97615.16;10315108;28;20055;-54
2022/04/29 15:01:24;;;;;;;1.77;1.67;;;;;;;19.71;37.15;97615.94;10297184;28;20082;-52
2022/04/29 15:06:44;;;;;;;3.47;1.92;;;;;;;19.73;36.85;97605.66;10316897;28;20058;-49
2022/04/29 15:17:41;;;;;;;4.85;2.80;;;;;;;19.73;35.65;97592.94;10320884;28;20449;-52
2022/04/29 15:23:01;;;;;;;5.40;3.22;;;;;;;19.73;34.15;97592.16;10330340;28;20049;-51
2022/04/29 15:28:21;;;;;;;3.53;3.13;;;;;;;19.70;32.98;97592.75;10329260;28;20058;-51
2022/04/29 15:33:41;;;;;;;5.97;3.13;;;;;;;19.69;32.70;97583.03;10328822;28;20054;-48
2022/04/29 15:39:01;;;;;;;5.72;3.55;;;;;;;19.68;32.43;97584.09;10323265;28;20050;-53
2022/04/29 15:44:21;;;;;;;5.70;3.40;;;;;;;19.66;32.27;97580.91;10343048;28;20054;-49
2022/04/29 15:49:42;;;;;;;6.30;3.42;;;;;;;19.65;32.10;97584.75;10335037;28;20106;-51
2022/04/29 15:55:03;;;;;;;4.50;3.42;;;;;;;19.62;32.03;97585.34;10328845;28;20058;-48
2022/04/29 16:00:24;;;;;;;5.65;3.45;;;;;;;19.60;31.58;97576.72;10320274;28;20062;-50
2022/04/29 16:05:44;;;;;;;4.72;3.40;;;;;;;19.58;31.58;97576.25;10308663;28;20500;-50
2022/04/29 16:11:04;;;;;;;4.30;3.45;;;;;;;19.54;31.11;97579.56;10307121;28;20076;-51
2022/04/29 16:16:23;;;;;;;5.28;3.47;;;;;;;19.51;31.31;97579.38;10331045;28;20604;-47
2022/04/29 16:21:43;;;;;;;5.57;3.78;;;;;;;19.49;30.99;97576.19;10333419;28;20394;-47
2022/04/29 16:27:03;;;;;;;5.45;3.60;;;;;;;19.46;31.30;97574.88;10334941;28;20065;-46
2022/04/29 16:32:23;;;;;;;4.85;3.63;;;;;;;19.45;31.26;97572.50;10333970;28;20416;-50
2022/04/29 16:37:45;;;;;;;7.57;3.80;;;;;;;19.41;30.93;97563.41;10319580;28;20051;-49
2022/04/29 16:43:07;;;;;;;6.32;3.55;;;;;;;19.39;31.04;97562.91;10331812;28;20054;-48
2022/04/29 16:48:27;;;;;;;2.72;2.47;;;;;;;19.40;32.04;97567.19;10330386;28;20050;-50
2022/04/29 16:53:47;;;;;;;3.28;2.60;;;;;;;19.44;32.73;97560.84;10334289;28;20504;-47
2022/04/29 16:59:06;;;;;;;4.05;2.60;;;;;;;19.49;32.60;97562.66;10343634;28;20043;-47
2022/04/29 17:04:25;;;;;;;2.92;2.60;;;;;;;19.51;33.45;97563.16;10325429;28;20058;-47
2022/04/29 17:09:45;;;;;;;3.10;2.63;;;;;;;19.53;33.57;97564.44;10322048;28;20391;-50
2022/04/29 17:15:05;;;;;;;3.65;2.83;;;;;;;19.58;33.89;97557.31;10328209;28;20055;-48
2022/04/29 17:20:24;;;;;;;2.78;2.58;;;;;;;19.60;34.20;97550.53;10303789;28;20105;-47
2022/04/29 17:25:45;;;;;;;2.88;2.58;;;;;;;19.64;34.32;97553.38;10328871;28;20083;-48
2022/04/29 17:31:05;;;;;;;4.18;2.90;;;;;;;19.65;34.69;97561.19;10344701;28;20042;-49
2022/04/29 17:36:24;;;;;;;3.30;2.90;;;;;;;19.69;34.64;97558.69;10318249;28;20058;-48
2022/04/29 17:47:22;;;;;;;4.37;3.17;;;;;;;19.73;35.06;97554.28;10341106;28;20832;-50
2022/04/29 17:52:47;;;;;;;3.38;2.88;;;;;;;19.75;35.34;97565.59;10324742;28;20093;-50
2022/04/29 17:58:07;;;;;;;3.30;2.75;;;;;;;19.76;35.29;97567.22;10321199;28;20058;-50
2022/04/29 18:03:27;;;;;;;4.22;3.00;;;;;;;19.80;35.58;97564.66;10326682;28;20046;-47
2022/04/29 18:08:47;;;;;;;2.90;2.63;;;;;;;19.82;35.62;97567.91;10327667;28;20046;-50
2022/04/29 18:14:07;;;;;;;4.90;2.72;;;;;;;19.84;35.79;97566.47;10310870;28;20087;-50
2022/04/29 18:19:27;;;;;;;4.28;2.72;;;;;;;19.86;36.00;97560.75;10331070;28;20046;-49
2022/04/29 18:24:48;;;;;;;4.15;3.42;;;;;;;19.88;35.21;97556.63;10336773;28;20054;-50
2022/04/29 18:30:08;;;;;;;4.00;3.10;;;;;;;19.90;35.91;97562.53;10329069;28;20058;-48
2022/04/29 18:35:27;;;;;;;6.28;5.65;;;;;;;19.88;34.27;97567.44;10343318;28;20042;-47
2022/04/29 18:40:47;;;;;;;7.93;4.10;;;;;;;19.88;35.74;97567.44;10330271;28;20112;-47
2022/04/29 18:46:06;;;;;;;5.00;4.38;;;;;;;19.91;36.02;97572.22;10302400;28;20477;-48
2022/04/29 18:51:25;;;;;;;5.18;4.68;;;;;;;19.96;36.13;97568.63;10339575;28;20093;-48
2022/04/29 18:56:45;;;;;;;6.40;4.65;;;;;;;20.02;36.40;97572.00;10324531;28;20528;-50
2022/04/29 19:02:05;;;;;;;5.18;4.53;;;;;;;20.05;36.96;97574.06;10307267;28;20055;-48
2022/04/29 19:07:25;;;;;;;6.70;4.30;;;;;;;20.08;37.15;97574.25;10328864;28;20065;-50
2022/04/29 19:12:45;;;;;;;7.72;4.55;;;;;;;20.09;37.61;97575.88;10323864;28;20081;-48
2022/04/29 19:18:04;;;;;;;7.28;4.63;;;;;;;20.14;37.71;97578.44;10320868;28;20113;-47
2022/04/29 19:23:24;;;;;;;5.07;4.40;;;;;;;20.18;37.89;97586.75;10336426;28;20166;-48
2022/04/29 19:28:44;;;;;;;5.40;4.30;;;;;;;20.20;38.00;97576.41;10315972;28;20058;-50
2022/04/29 19:34:03;;;;;;;5.05;4.10;;;;;;;20.22;38.24;97579.59;10316085;28;20062;-50
2022/04/29 19:39:23;;;;;;;5.43;4.00;;;;;;;20.25;38.40;97564.66;10329778;28;20062;-50
2022/04/29 19:44:43;;;;;;;6.68;4.05;;;;;;;20.27;38.41;97567.88;10328564;28;20799;-50
2022/04/29 19:50:03;;;;;;;4.97;4.30;;;;;;;20.28;38.47;97559.41;10329336;28;20321;-49
2022/04/29 19:55:23;;;;;;;5.15;4.07;;;;;;;20.30;38.41;97557.19;10334368;28;20113;-53
2022/04/29 20:00:42;;;;;;;4.68;3.80;;;;;;;20.31;38.69;97556.09;10332004;28;20058;-53
2022/04/29 20:06:04;;;;;;;4.03;3.72;;;;;;;20.33;38.74;97559.28;10329868;28;20502;-53
2022/04/29 20:11:24;;;;;;;5.50;4.05;;;;;;;20.34;38.78;97554.66;10344815;28;20057;-50
2022/04/29 20:16:46;;;;;;;5.28;4.07;;;;;;;20.34;38.76;97546.56;10336434;28;20113;-53
2022/04/29 20:22:06;;;;;;;5.00;3.83;;;;;;;20.37;39.04;97558.69;10328327;28;20355;-50
2022/04/29 20:27:26;;;;;;;5.05;3.90;;;;;;;20.38;39.08;97557.56;10342699;28;20062;-49
2022/04/29 20:32:47;;;;;;;6.80;3.90;;;;;;;20.39;39.14;97559.97;10329949;28;20051;-53
2022/04/29 20:38:06;;;;;;;5.15;3.75;;;;;;;20.39;39.19;97559.97;10331760;28;20058;-50
2022/04/29 20:49:07;;;;;;;5.65;4.07;;;;;;;20.42;39.13;97551.19;10338443;28;20104;-49
2022/04/29 20:54:27;;;;;;;4.18;3.78;;;;;;;20.42;39.19;97550.41;10331591;28;20054;-51
2022/04/29 20:59:46;;;;;;;5.00;3.60;;;;;;;20.41;38.96;97538.78;10327338;28;20050;-52
2022/04/29 21:05:07;;;;;;;3.88;3.47;;;;;;;20.42;39.19;97540.38;10328047;28;20054;-50
2022/04/29 21:10:30;;;;;;;4.15;3.75;;;;;;;20.42;39.14;97548.50;10340239;28;20154;-52
2022/04/29 21:15:49;;;;;;;3.97;3.58;;;;;;;20.44;39.17;97537.38;10327095;28;20058;-53
2022/04/29 21:21:09;;;;;;;4.05;3.40;;;;;;;20.45;39.12;97547.09;10330607;28;20055;-52
2022/04/29 21:26:28;;;;;;;4.25;3.75;;;;;;;20.44;39.28;97540.06;10330266;28;20104;-52
2022/04/29 21:31:48;;;;;;;5.03;3.50;;;;;;;20.43;39.26;97535.78;10328053;28;20050;-51
2022/04/29 21:37:07;;;;;;;4.15;3.60;;;;;;;20.44;39.26;97534.66;10329931;28;20764;-52
2022/04/29 21:42:26;;;;;;;3.83;3.53;;;;;;;20.44;39.34;97540.06;10322757;28;20054;-52
2022/04/29 21:47:46;;;;;;;3.83;3.45;;;;;;;20.44;39.25;97531.94;10321265;28;20055;-51
2022/04/29 21:53:06;;;;;;;4.95;3.38;;;;;;;20.43;39.19;97525.75;10326119;28;20070;-50
2022/04/29 21:58:25;;;;;;;4.50;3.72;;;;;;;20.43;39.02;97533.09;10321551;28;20520;-50
2022/04/29 22:03:46;;;;;;;3.78;3.45;;;;;;;20.42;39.14;97526.84;10322586;28;20055;-51
2022/04/29 22:09:05;;;;;;;4.72;3.95;;;;;;;20.42;39.08;97523.34;10329744;28;20069;-50
2022/04/29 22:14:25;;;;;;;3.88;3.53;;;;;;;20.41;39.04;97529.88;10310974;28;20073;-51
2022/04/29 22:19:44;;;;;;;4.25;3.85;;;;;;;20.40;39.03;97530.97;10339389;28;20065;-52
2022/04/29 22:25:05;;;;;;;4.60;3.80;;;;;;;20.38;38.97;97525.88;10339661;28;20513;-52
2022/04/29 22:30:24;;;;;;;6.15;4.10;;;;;;;20.39;39.02;97518.56;10325012;28;20566;-52
2022/04/29 22:35:44;;;;;;;4.43;3.63;;;;;;;20.39;38.96;97522.06;10329979;28;20578;-52
2022/04/29 22:41:04;;;;;;;3.90;3.50;;;;;;;20.38;38.89;97514.25;10325549;28;20050;-50
2022/04/29 22:46:25;;;;;;;4.63;3.78;;;;;;;20.37;38.89;97509.97;10338296;28;20051;-51
2022/04/29 22:51:46;;;;;;;4.25;3.85;;;;;;;20.35;38.87;97519.19;10326634;28;20597;-51
2022/04/29 22:57:06;;;;;;;4.30;3.60;;;;;;;20.34;38.92;97509.47;10298289;28;20055;-49
2022/04/29 23:02:25;;;;;;;4.07;3.67;;;;;;;20.34;38.75;97505.97;10333189;28;20046;-49
2022/04/29 23:07:45;;;;;;;3.92;3.55;;;;;;;20.33;38.77;97512.50;10323401;28;20055;-51
2022/04/29 23:13:04;;;;;;;4.53;3.40;;;;;;;20.31;38.68;97507.41;10318917;28;20109;-50
2022/04/29 23:24:03;;;;;;;4.82;3.50;;;;;;;20.30;38.84;97503.06;10323468;28;20474;-51
2022/04/29 23:29:24;;;;;;;3.97;3.58;;;;;;;20.30;38.71;97508.50;10314089;28;20133;-49
2022/04/29 23:34:44;;;;;;;3.83;3.42;;;;;;;20.29;38.74;97500.72;10332553;28;20486;-50
2022/04/29 23:40:06;;;;;;;3.63;3.33;;;;;;;20.28;38.65;97499.88;10324598;28;20469;-51
2022/04/29 23:45:25;;;;;;;3.92;3.30;;;;;;;20.27;38.75;97494.81;10323686;28;20050;-52
2022/04/29 23:50:45;;;;;;;3.67;3.38;;;;;;;20.27;38.68;97484.00;10291475;28;20051;-51
2022/04/29 23:56:06;;;;;;;3.90;3.30;;;;;;;20.26;38.62;97490.50;10321250;28;20054;-51
